Weather at Yucca Airstrip

Public forecast

Using degrees Fahrenheit for public forecast. Weather courtesy of forecast.io.

Closest aviation weather report (METAR) to Yucca Airstrip

Closest report is Desert Rock Airport, 19.6 nm (36.3 km) S. Retrieved 2021/06/22 16:53 UTC (1 hour ago):

KDRA 221653Z AUTO 22016G27KT 10SM CLR 34/M07 A2994 RMK AO2 PK WND 22030/1557 SLP077 T03391072

Closest aviation forecast (TAF) to Yucca Airstrip

Forecast is more than 12 hours old.

Closest forecast is Desert Rock Airport, 19.6 nm (36.3 km) S. Retrieved 2011/12/07 06:36 UTC (10 years ago):

TAF KDRA 070532Z 0706/0806 VRB04KT P6SM SKC